sensor_id;sensor_type;location;lat;lon;timestamp;temperature;humidity
43627;DHT22;29217;52.586;13.442;2022-09-09T00:00:25;14.30;99.90
43627;DHT22;29217;52.586;13.442;2022-09-09T00:03:14;14.20;99.90
43627;DHT22;29217;52.586;13.442;2022-09-09T00:06:06;14.10;99.90
43627;DHT22;29217;52.586;13.442;2022-09-09T00:11:45;14.00;99.90
43627;DHT22;29217;52.586;13.442;2022-09-09T00:14:32;14.00;99.90
43627;DHT22;29217;52.586;13.442;2022-09-09T00:17:08;14.00;99.90
43627;DHT22;29217;52.586;13.442;2022-09-09T00:19:44;14.00;99.90
43627;DHT22;29217;52.586;13.442;2022-09-09T00:22:17;14.00;99.90
43627;DHT22;29217;52.586;13.442;2022-09-09T00:24:44;14.00;99.90
43627;DHT22;29217;52.586;13.442;2022-09-09T00:27:16;14.00;99.90
43627;DHT22;29217;52.586;13.442;2022-09-09T00:29:52;13.90;99.90
43627;DHT22;29217;52.586;13.442;2022-09-09T00:32:19;13.80;99.90
43627;DHT22;29217;52.586;13.442;2022-09-09T00:37:25;13.80;99.90
43627;DHT22;29217;52.586;13.442;2022-09-09T00:39:53;13.70;99.90
43627;DHT22;29217;52.586;13.442;2022-09-09T00:42:26;13.70;99.90
43627;DHT22;29217;52.586;13.442;2022-09-09T00:45:05;13.70;99.90
43627;DHT22;29217;52.586;13.442;2022-09-09T00:59:03;13.60;99.90
43627;DHT22;29217;52.586;13.442;2022-09-09T01:01:30;13.60;99.90
43627;DHT22;29217;52.586;13.442;2022-09-09T01:03:56;13.60;99.90
43627;DHT22;29217;52.586;13.442;2022-09-09T01:06:33;13.50;99.90
43627;DHT22;29217;52.586;13.442;2022-09-09T01:09:30;13.40;99.90
43627;DHT22;29217;52.586;13.442;2022-09-09T01:12:23;13.50;99.90
43627;DHT22;29217;52.586;13.442;2022-09-09T01:14:51;13.50;99.90
43627;DHT22;29217;52.586;13.442;2022-09-09T01:17:50;13.60;99.90
43627;DHT22;29217;52.586;13.442;2022-09-09T01:20:33;13.50;99.90
43627;DHT22;29217;52.586;13.442;2022-09-09T01:26:09;13.50;99.90
43627;DHT22;29217;52.586;13.442;2022-09-09T01:28:39;13.40;99.90
43627;DHT22;29217;52.586;13.442;2022-09-09T01:31:06;13.40;99.90
43627;DHT22;29217;52.586;13.442;2022-09-09T01:33:34;13.50;99.90
43627;DHT22;29217;52.586;13.442;2022-09-09T01:36:08;13.40;99.90
43627;DHT22;29217;52.586;13.442;2022-09-09T01:38:35;13.40;99.90
43627;DHT22;29217;52.586;13.442;2022-09-09T01:41:02;13.50;99.90
43627;DHT22;29217;52.586;13.442;2022-09-09T01:43:28;13.50;99.90
43627;DHT22;29217;52.586;13.442;2022-09-09T01:45:55;13.50;99.90
43627;DHT22;29217;52.586;13.442;2022-09-09T01:48:22;13.60;99.90
43627;DHT22;29217;52.586;13.442;2022-09-09T01:50:48;13.50;99.90
43627;DHT22;29217;52.586;13.442;2022-09-09T01:53:15;13.50;99.90
43627;DHT22;29217;52.586;13.442;2022-09-09T01:55:50;13.50;99.90
43627;DHT22;29217;52.586;13.442;2022-09-09T02:03:54;13.50;99.90
43627;DHT22;29217;52.586;13.442;2022-09-09T02:06:35;13.50;99.90
43627;DHT22;29217;52.586;13.442;2022-09-09T02:09:05;13.40;99.90
43627;DHT22;29217;52.586;13.442;2022-09-09T02:11:31;13.40;99.90
43627;DHT22;29217;52.586;13.442;2022-09-09T02:14:05;13.30;99.90
43627;DHT22;29217;52.586;13.442;2022-09-09T02:16:36;13.30;99.90
43627;DHT22;29217;52.586;13.442;2022-09-09T02:19:14;13.30;99.90
43627;DHT22;29217;52.586;13.442;2022-09-09T02:21:42;13.30;99.90
43627;DHT22;29217;52.586;13.442;2022-09-09T02:24:11;13.30;99.90
43627;DHT22;29217;52.586;13.442;2022-09-09T02:26:40;13.20;99.90
43627;DHT22;29217;52.586;13.442;2022-09-09T02:29:13;13.10;99.90
43627;DHT22;29217;52.586;13.442;2022-09-09T02:31:41;13.10;99.90
43627;DHT22;29217;52.586;13.442;2022-09-09T02:34:09;13.00;99.90
43627;DHT22;29217;52.586;13.442;2022-09-09T02:36:37;13.00;99.90
43627;DHT22;29217;52.586;13.442;2022-09-09T02:39:05;13.10;99.90
43627;DHT22;29217;52.586;13.442;2022-09-09T02:41:35;13.10;99.90
43627;DHT22;29217;52.586;13.442;2022-09-09T02:44:01;13.10;99.90
43627;DHT22;29217;52.586;13.442;2022-09-09T02:49:29;12.90;99.90
43627;DHT22;29217;52.586;13.442;2022-09-09T02:52:13;12.90;99.90
43627;DHT22;29217;52.586;13.442;2022-09-09T02:54:41;12.90;99.90
43627;DHT22;29217;52.586;13.442;2022-09-09T02:57:21;12.90;99.90
43627;DHT22;29217;52.586;13.442;2022-09-09T02:59:49;12.90;99.90
43627;DHT22;29217;52.586;13.442;2022-09-09T03:02:17;13.00;99.90
43627;DHT22;29217;52.586;13.442;2022-09-09T03:04:44;13.00;99.90
43627;DHT22;29217;52.586;13.442;2022-09-09T03:07:11;12.90;99.90
43627;DHT22;29217;52.586;13.442;2022-09-09T03:09:37;12.90;99.90
43627;DHT22;29217;52.586;13.442;2022-09-09T03:12:02;12.90;99.90
43627;DHT22;29217;52.586;13.442;2022-09-09T03:14:29;12.80;99.90
43627;DHT22;29217;52.586;13.442;2022-09-09T03:16:55;12.80;99.90
43627;DHT22;29217;52.586;13.442;2022-09-09T03:19:23;12.80;99.90
43627;DHT22;29217;52.586;13.442;2022-09-09T03:21:48;12.70;99.90
43627;DHT22;29217;52.586;13.442;2022-09-09T03:24:15;12.80;99.90
43627;DHT22;29217;52.586;13.442;2022-09-09T03:26:41;12.80;99.90
43627;DHT22;29217;52.586;13.442;2022-09-09T03:29:10;12.80;99.90
43627;DHT22;29217;52.586;13.442;2022-09-09T03:31:38;12.80;99.90
43627;DHT22;29217;52.586;13.442;2022-09-09T03:34:03;12.80;99.90
43627;DHT22;29217;52.586;13.442;2022-09-09T03:36:29;12.80;99.90
43627;DHT22;29217;52.586;13.442;2022-09-09T03:38:55;12.70;99.90
43627;DHT22;29217;52.586;13.442;2022-09-09T03:41:22;12.70;99.90
43627;DHT22;29217;52.586;13.442;2022-09-09T03:43:52;12.70;99.90
43627;DHT22;29217;52.586;13.442;2022-09-09T03:46:22;12.60;99.90
43627;DHT22;29217;52.586;13.442;2022-09-09T03:48:48;12.60;99.90
43627;DHT22;29217;52.586;13.442;2022-09-09T03:51:14;12.60;99.90
43627;DHT22;29217;52.586;13.442;2022-09-09T03:53:41;12.60;99.90
43627;DHT22;29217;52.586;13.442;2022-09-09T03:56:07;12.50;99.90
43627;DHT22;29217;52.586;13.442;2022-09-09T03:58:34;12.40;99.90
43627;DHT22;29217;52.586;13.442;2022-09-09T04:01:03;12.40;99.90
43627;DHT22;29217;52.586;13.442;2022-09-09T04:03:29;12.40;99.90
43627;DHT22;29217;52.586;13.442;2022-09-09T04:05:56;12.40;99.90
43627;DHT22;29217;52.586;13.442;2022-09-09T04:08:22;12.40;99.90
43627;DHT22;29217;52.586;13.442;2022-09-09T04:10:50;12.40;99.90
43627;DHT22;29217;52.586;13.442;2022-09-09T04:13:17;12.50;99.90
43627;DHT22;29217;52.586;13.442;2022-09-09T04:15:57;12.50;99.90
43627;DHT22;29217;52.586;13.442;2022-09-09T04:18:23;12.50;99.90
43627;DHT22;29217;52.586;13.442;2022-09-09T04:20:50;12.50;99.90
43627;DHT22;29217;52.586;13.442;2022-09-09T04:23:17;12.40;99.90
43627;DHT22;29217;52.586;13.442;2022-09-09T04:25:49;12.40;99.90
43627;DHT22;29217;52.586;13.442;2022-09-09T04:28:19;12.30;99.90
43627;DHT22;29217;52.586;13.442;2022-09-09T04:30:45;12.30;99.90
43627;DHT22;29217;52.586;13.442;2022-09-09T04:33:11;12.30;99.90
43627;DHT22;29217;52.586;13.442;2022-09-09T04:35:37;12.20;99.90
43627;DHT22;29217;52.586;13.442;2022-09-09T04:38:04;12.20;99.90
43627;DHT22;29217;52.586;13.442;2022-09-09T04:40:30;12.10;99.90
43627;DHT22;29217;52.586;13.442;2022-09-09T04:43:00;12.20;99.90
43627;DHT22;29217;52.586;13.442;2022-09-09T04:45:26;12.20;99.90
43627;DHT22;29217;52.586;13.442;2022-09-09T04:47:52;12.30;99.90
43627;DHT22;29217;52.586;13.442;2022-09-09T04:50:18;12.20;99.90
43627;DHT22;29217;52.586;13.442;2022-09-09T04:52:44;12.30;99.90
43627;DHT22;29217;52.586;13.442;2022-09-09T04:55:10;12.30;99.90
43627;DHT22;29217;52.586;13.442;2022-09-09T04:57:36;12.40;99.90
43627;DHT22;29217;52.586;13.442;2022-09-09T05:00:02;12.40;99.90
43627;DHT22;29217;52.586;13.442;2022-09-09T05:02:28;12.40;99.90
43627;DHT22;29217;52.586;13.442;2022-09-09T05:04:54;12.40;99.90
43627;DHT22;29217;52.586;13.442;2022-09-09T05:07:20;12.30;99.90
43627;DHT22;29217;52.586;13.442;2022-09-09T05:09:45;12.30;99.90
43627;DHT22;29217;52.586;13.442;2022-09-09T05:12:13;12.40;99.90
43627;DHT22;29217;52.586;13.442;2022-09-09T05:14:38;12.50;99.90
43627;DHT22;29217;52.586;13.442;2022-09-09T05:17:04;12.60;99.90
43627;DHT22;29217;52.586;13.442;2022-09-09T05:19:30;12.60;99.90
43627;DHT22;29217;52.586;13.442;2022-09-09T05:21:56;12.70;99.90
43627;DHT22;29217;52.586;13.442;2022-09-09T05:24:22;12.80;99.90
43627;DHT22;29217;52.586;13.442;2022-09-09T05:26:48;12.80;99.90
43627;DHT22;29217;52.586;13.442;2022-09-09T05:29:14;12.80;99.90
43627;DHT22;29217;52.586;13.442;2022-09-09T05:31:40;13.00;99.90
43627;DHT22;29217;52.586;13.442;2022-09-09T05:34:06;13.00;99.90
43627;DHT22;29217;52.586;13.442;2022-09-09T05:36:31;13.20;99.90
43627;DHT22;29217;52.586;13.442;2022-09-09T05:38:57;13.30;99.90
43627;DHT22;29217;52.586;13.442;2022-09-09T05:41:23;13.40;99.90
43627;DHT22;29217;52.586;13.442;2022-09-09T05:43:48;13.40;99.90
43627;DHT22;29217;52.586;13.442;2022-09-09T05:46:16;13.50;99.90
43627;DHT22;29217;52.586;13.442;2022-09-09T05:48:43;13.60;99.90
43627;DHT22;29217;52.586;13.442;2022-09-09T05:51:13;13.70;99.90
43627;DHT22;29217;52.586;13.442;2022-09-09T05:53:41;13.80;99.90
43627;DHT22;29217;52.586;13.442;2022-09-09T05:56:09;13.90;99.90
43627;DHT22;29217;52.586;13.442;2022-09-09T05:58:39;14.00;99.90
43627;DHT22;29217;52.586;13.442;2022-09-09T06:01:10;14.10;99.90
43627;DHT22;29217;52.586;13.442;2022-09-09T06:03:40;14.20;99.90
43627;DHT22;29217;52.586;13.442;2022-09-09T06:06:08;14.20;99.90
43627;DHT22;29217;52.586;13.442;2022-09-09T06:08:39;14.30;99.90
43627;DHT22;29217;52.586;13.442;2022-09-09T06:11:10;14.30;99.90
43627;DHT22;29217;52.586;13.442;2022-09-09T06:13:36;14.40;99.90
43627;DHT22;29217;52.586;13.442;2022-09-09T06:16:09;14.50;99.90
43627;DHT22;29217;52.586;13.442;2022-09-09T06:18:37;14.50;99.90
43627;DHT22;29217;52.586;13.442;2022-09-09T06:21:04;14.60;99.90
43627;DHT22;29217;52.586;13.442;2022-09-09T06:23:30;14.70;99.90
43627;DHT22;29217;52.586;13.442;2022-09-09T06:26:04;14.80;99.90
43627;DHT22;29217;52.586;13.442;2022-09-09T06:28:31;14.80;99.90
43627;DHT22;29217;52.586;13.442;2022-09-09T06:30:58;14.90;99.90
43627;DHT22;29217;52.586;13.442;2022-09-09T06:33:24;14.90;99.90
43627;DHT22;29217;52.586;13.442;2022-09-09T06:35:53;15.00;99.90
43627;DHT22;29217;52.586;13.442;2022-09-09T06:38:19;15.00;99.90
43627;DHT22;29217;52.586;13.442;2022-09-09T06:40:52;15.10;99.90
43627;DHT22;29217;52.586;13.442;2022-09-09T06:43:19;15.20;99.90
43627;DHT22;29217;52.586;13.442;2022-09-09T06:45:53;15.20;99.90
43627;DHT22;29217;52.586;13.442;2022-09-09T06:48:19;15.30;99.90
43627;DHT22;29217;52.586;13.442;2022-09-09T06:50:45;15.30;99.90
43627;DHT22;29217;52.586;13.442;2022-09-09T06:53:10;15.40;99.90
43627;DHT22;29217;52.586;13.442;2022-09-09T06:55:36;15.50;99.90
43627;DHT22;29217;52.586;13.442;2022-09-09T06:58:01;15.40;99.90
43627;DHT22;29217;52.586;13.442;2022-09-09T07:00:27;15.50;99.90
43627;DHT22;29217;52.586;13.442;2022-09-09T07:02:55;15.50;99.90
43627;DHT22;29217;52.586;13.442;2022-09-09T07:05:20;15.60;99.90
43627;DHT22;29217;52.586;13.442;2022-09-09T07:07:46;15.70;99.90
43627;DHT22;29217;52.586;13.442;2022-09-09T07:10:12;15.70;99.90
43627;DHT22;29217;52.586;13.442;2022-09-09T07:12:37;15.80;99.90
43627;DHT22;29217;52.586;13.442;2022-09-09T07:15:03;16.00;99.90
43627;DHT22;29217;52.586;13.442;2022-09-09T07:17:29;16.00;99.90
43627;DHT22;29217;52.586;13.442;2022-09-09T07:19:54;16.10;99.90
43627;DHT22;29217;52.586;13.442;2022-09-09T07:22:20;16.20;99.90
43627;DHT22;29217;52.586;13.442;2022-09-09T07:24:45;16.30;99.90
43627;DHT22;29217;52.586;13.442;2022-09-09T07:27:11;16.40;99.90
43627;DHT22;29217;52.586;13.442;2022-09-09T07:29:36;16.60;99.90
43627;DHT22;29217;52.586;13.442;2022-09-09T07:32:02;16.60;99.90
43627;DHT22;29217;52.586;13.442;2022-09-09T07:34:29;16.70;99.90
43627;DHT22;29217;52.586;13.442;2022-09-09T07:36:55;16.80;99.90
43627;DHT22;29217;52.586;13.442;2022-09-09T07:39:22;16.80;99.90
43627;DHT22;29217;52.586;13.442;2022-09-09T07:41:49;16.90;99.90
43627;DHT22;29217;52.586;13.442;2022-09-09T07:44:20;17.00;99.90
43627;DHT22;29217;52.586;13.442;2022-09-09T07:46:50;17.10;99.90
43627;DHT22;29217;52.586;13.442;2022-09-09T07:49:16;17.30;99.90
43627;DHT22;29217;52.586;13.442;2022-09-09T07:51:44;17.30;99.90
43627;DHT22;29217;52.586;13.442;2022-09-09T07:54:13;17.50;99.90
43627;DHT22;29217;52.586;13.442;2022-09-09T07:56:39;17.60;99.90
43627;DHT22;29217;52.586;13.442;2022-09-09T07:59:05;17.70;99.90
43627;DHT22;29217;52.586;13.442;2022-09-09T08:01:40;17.80;99.90
43627;DHT22;29217;52.586;13.442;2022-09-09T08:04:12;17.90;99.90
43627;DHT22;29217;52.586;13.442;2022-09-09T08:06:41;18.00;99.90
43627;DHT22;29217;52.586;13.442;2022-09-09T08:09:08;18.00;99.90
43627;DHT22;29217;52.586;13.442;2022-09-09T08:11:34;18.20;99.90
43627;DHT22;29217;52.586;13.442;2022-09-09T08:14:02;18.30;99.90
43627;DHT22;29217;52.586;13.442;2022-09-09T08:16:30;18.40;99.90
43627;DHT22;29217;52.586;13.442;2022-09-09T08:18:56;18.50;99.90
43627;DHT22;29217;52.586;13.442;2022-09-09T08:21:25;18.50;99.90
43627;DHT22;29217;52.586;13.442;2022-09-09T08:23:53;18.60;99.90
43627;DHT22;29217;52.586;13.442;2022-09-09T08:26:21;18.60;99.90
43627;DHT22;29217;52.586;13.442;2022-09-09T08:28:49;18.70;99.90
43627;DHT22;29217;52.586;13.442;2022-09-09T08:31:26;18.70;99.90
43627;DHT22;29217;52.586;13.442;2022-09-09T08:33:53;18.70;99.90
43627;DHT22;29217;52.586;13.442;2022-09-09T08:36:21;18.80;99.90
43627;DHT22;29217;52.586;13.442;2022-09-09T08:38:48;18.80;99.90
43627;DHT22;29217;52.586;13.442;2022-09-09T08:46:56;18.70;99.90
43627;DHT22;29217;52.586;13.442;2022-09-09T08:49:48;18.70;99.90
43627;DHT22;29217;52.586;13.442;2022-09-09T08:52:28;18.80;99.90
43627;DHT22;29217;52.586;13.442;2022-09-09T08:54:58;18.90;99.90
43627;DHT22;29217;52.586;13.442;2022-09-09T08:57:26;18.90;99.90
43627;DHT22;29217;52.586;13.442;2022-09-09T08:59:54;19.00;99.90
43627;DHT22;29217;52.586;13.442;2022-09-09T09:02:50;18.90;99.90
43627;DHT22;29217;52.586;13.442;2022-09-09T09:05:23;18.90;99.90
43627;DHT22;29217;52.586;13.442;2022-09-09T09:08:12;18.90;99.90
43627;DHT22;29217;52.586;13.442;2022-09-09T09:10:46;19.00;99.90
43627;DHT22;29217;52.586;13.442;2022-09-09T09:13:26;19.00;99.90
43627;DHT22;29217;52.586;13.442;2022-09-09T09:16:00;19.10;99.90
43627;DHT22;29217;52.586;13.442;2022-09-09T09:18:27;19.10;99.90
43627;DHT22;29217;52.586;13.442;2022-09-09T09:20:58;19.10;99.90
43627;DHT22;29217;52.586;13.442;2022-09-09T09:26:35;19.10;99.90
43627;DHT22;29217;52.586;13.442;2022-09-09T09:29:12;19.20;99.90
43627;DHT22;29217;52.586;13.442;2022-09-09T09:31:38;19.30;99.90
43627;DHT22;29217;52.586;13.442;2022-09-09T09:34:03;19.50;99.90
43627;DHT22;29217;52.586;13.442;2022-09-09T09:36:41;19.60;99.90
43627;DHT22;29217;52.586;13.442;2022-09-09T09:39:07;19.70;99.90
43627;DHT22;29217;52.586;13.442;2022-09-09T09:41:40;19.80;99.90
43627;DHT22;29217;52.586;13.442;2022-09-09T09:44:22;19.90;99.90
43627;DHT22;29217;52.586;13.442;2022-09-09T09:46:48;20.00;99.90
43627;DHT22;29217;52.586;13.442;2022-09-09T09:49:14;20.10;99.90
43627;DHT22;29217;52.586;13.442;2022-09-09T09:51:39;20.20;99.90
43627;DHT22;29217;52.586;13.442;2022-09-09T09:54:20;20.20;99.90
43627;DHT22;29217;52.586;13.442;2022-09-09T09:56:48;20.20;99.90
43627;DHT22;29217;52.586;13.442;2022-09-09T09:59:43;20.30;99.90
43627;DHT22;29217;52.586;13.442;2022-09-09T10:02:25;20.40;99.90
43627;DHT22;29217;52.586;13.442;2022-09-09T10:07:27;20.50;99.90
43627;DHT22;29217;52.586;13.442;2022-09-09T10:09:57;20.60;99.90
43627;DHT22;29217;52.586;13.442;2022-09-09T10:12:38;20.60;99.90
43627;DHT22;29217;52.586;13.442;2022-09-09T10:18:13;20.70;99.90
43627;DHT22;29217;52.586;13.442;2022-09-09T10:23:51;20.70;99.90
43627;DHT22;29217;52.586;13.442;2022-09-09T10:29:22;20.90;99.90
43627;DHT22;29217;52.586;13.442;2022-09-09T10:35:14;21.00;99.90
43627;DHT22;29217;52.586;13.442;2022-09-09T10:43:49;21.40;99.90
43627;DHT22;29217;52.586;13.442;2022-09-09T10:51:53;21.30;99.90
43627;DHT22;29217;52.586;13.442;2022-09-09T10:54:27;21.30;99.90
43627;DHT22;29217;52.586;13.442;2022-09-09T10:57:05;21.30;99.90
43627;DHT22;29217;52.586;13.442;2022-09-09T10:59:40;21.40;99.90
43627;DHT22;29217;52.586;13.442;2022-09-09T11:04:42;21.40;99.90
43627;DHT22;29217;52.586;13.442;2022-09-09T11:07:13;21.30;99.90
43627;DHT22;29217;52.586;13.442;2022-09-09T11:09:47;21.60;99.90
43627;DHT22;29217;52.586;13.442;2022-09-09T11:12:18;21.80;99.90
43627;DHT22;29217;52.586;13.442;2022-09-09T11:14:57;22.00;99.90
43627;DHT22;29217;52.586;13.442;2022-09-09T11:17:50;22.10;99.90
43627;DHT22;29217;52.586;13.442;2022-09-09T11:20:15;22.30;99.90
43627;DHT22;29217;52.586;13.442;2022-09-09T11:22:58;22.10;99.90
43627;DHT22;29217;52.586;13.442;2022-09-09T11:25:42;22.10;99.90
43627;DHT22;29217;52.586;13.442;2022-09-09T11:44:40;24.10;99.90
43627;DHT22;29217;52.586;13.442;2022-09-09T11:47:29;24.30;99.90
43627;DHT22;29217;52.586;13.442;2022-09-09T11:52:41;26.00;99.90
43627;DHT22;29217;52.586;13.442;2022-09-09T11:55:31;26.50;99.90
43627;DHT22;29217;52.586;13.442;2022-09-09T12:00:43;25.00;99.90
43627;DHT22;29217;52.586;13.442;2022-09-09T12:08:45;23.90;99.90
43627;DHT22;29217;52.586;13.442;2022-09-09T12:11:11;24.30;99.90
43627;DHT22;29217;52.586;13.442;2022-09-09T12:13:37;25.00;99.90
43627;DHT22;29217;52.586;13.442;2022-09-09T12:16:03;25.60;99.90
43627;DHT22;29217;52.586;13.442;2022-09-09T12:18:35;25.20;99.90
43627;DHT22;29217;52.586;13.442;2022-09-09T12:21:22;24.70;99.90
43627;DHT22;29217;52.586;13.442;2022-09-09T12:24:19;24.40;99.90
43627;DHT22;29217;52.586;13.442;2022-09-09T12:27:01;25.10;99.90
43627;DHT22;29217;52.586;13.442;2022-09-09T12:29:44;24.90;99.90
43627;DHT22;29217;52.586;13.442;2022-09-09T12:32:23;24.40;99.90
43627;DHT22;29217;52.586;13.442;2022-09-09T12:35:00;24.40;99.90
43627;DHT22;29217;52.586;13.442;2022-09-09T12:37:40;24.70;99.90
43627;DHT22;29217;52.586;13.442;2022-09-09T12:40:28;25.00;99.90
43627;DHT22;29217;52.586;13.442;2022-09-09T12:42:53;25.10;99.90
43627;DHT22;29217;52.586;13.442;2022-09-09T12:45:22;25.00;99.90
43627;DHT22;29217;52.586;13.442;2022-09-09T12:50:26;24.20;99.90
43627;DHT22;29217;52.586;13.442;2022-09-09T12:52:55;24.10;99.90
43627;DHT22;29217;52.586;13.442;2022-09-09T12:55:25;23.90;99.90
43627;DHT22;29217;52.586;13.442;2022-09-09T12:57:53;23.80;99.90
43627;DHT22;29217;52.586;13.442;2022-09-09T13:00:21;23.60;99.90
43627;DHT22;29217;52.586;13.442;2022-09-09T13:02:50;23.30;99.90
43627;DHT22;29217;52.586;13.442;2022-09-09T13:05:26;23.30;99.90
43627;DHT22;29217;52.586;13.442;2022-09-09T13:08:01;23.30;99.90
43627;DHT22;29217;52.586;13.442;2022-09-09T13:10:29;23.40;99.90
43627;DHT22;29217;52.586;13.442;2022-09-09T13:12:57;23.20;99.90
43627;DHT22;29217;52.586;13.442;2022-09-09T13:15:25;23.10;99.90
43627;DHT22;29217;52.586;13.442;2022-09-09T13:18:02;23.00;99.90
43627;DHT22;29217;52.586;13.442;2022-09-09T13:20:30;22.80;99.90
43627;DHT22;29217;52.586;13.442;2022-09-09T13:22:57;22.70;99.90
43627;DHT22;29217;52.586;13.442;2022-09-09T13:25:27;22.60;99.90
43627;DHT22;29217;52.586;13.442;2022-09-09T13:28:02;22.50;99.90
43627;DHT22;29217;52.586;13.442;2022-09-09T13:30:29;22.40;99.90
43627;DHT22;29217;52.586;13.442;2022-09-09T13:35:47;22.30;99.90
43627;DHT22;29217;52.586;13.442;2022-09-09T13:38:15;22.30;99.90
43627;DHT22;29217;52.586;13.442;2022-09-09T13:40:52;22.30;99.90
43627;DHT22;29217;52.586;13.442;2022-09-09T13:43:21;22.30;99.90
43627;DHT22;29217;52.586;13.442;2022-09-09T13:46:03;22.30;99.90
43627;DHT22;29217;52.586;13.442;2022-09-09T13:48:28;22.30;99.90
43627;DHT22;29217;52.586;13.442;2022-09-09T13:51:04;22.40;99.90
43627;DHT22;29217;52.586;13.442;2022-09-09T13:53:31;22.40;99.90
43627;DHT22;29217;52.586;13.442;2022-09-09T13:55:57;22.40;99.90
43627;DHT22;29217;52.586;13.442;2022-09-09T13:58:24;22.70;99.90
43627;DHT22;29217;52.586;13.442;2022-09-09T14:00:53;23.10;99.90
43627;DHT22;29217;52.586;13.442;2022-09-09T14:03:19;23.50;99.90
43627;DHT22;29217;52.586;13.442;2022-09-09T14:05:45;23.90;99.90
43627;DHT22;29217;52.586;13.442;2022-09-09T14:08:24;24.40;99.90
43627;DHT22;29217;52.586;13.442;2022-09-09T14:10:50;24.60;99.90
43627;DHT22;29217;52.586;13.442;2022-09-09T14:13:16;24.50;99.90
43627;DHT22;29217;52.586;13.442;2022-09-09T14:15:41;24.20;99.90
43627;DHT22;29217;52.586;13.442;2022-09-09T14:18:11;23.80;99.90
43627;DHT22;29217;52.586;13.442;2022-09-09T14:20:37;23.60;99.90
43627;DHT22;29217;52.586;13.442;2022-09-09T14:23:02;23.50;99.90
43627;DHT22;29217;52.586;13.442;2022-09-09T14:25:28;23.60;99.90
43627;DHT22;29217;52.586;13.442;2022-09-09T14:27:53;23.70;99.90
43627;DHT22;29217;52.586;13.442;2022-09-09T14:30:19;23.80;99.90
43627;DHT22;29217;52.586;13.442;2022-09-09T14:32:44;24.00;99.90
43627;DHT22;29217;52.586;13.442;2022-09-09T14:35:10;23.90;99.90
43627;DHT22;29217;52.586;13.442;2022-09-09T14:37:36;23.60;99.90
43627;DHT22;29217;52.586;13.442;2022-09-09T14:40:02;23.50;99.90
43627;DHT22;29217;52.586;13.442;2022-09-09T14:42:27;23.20;99.90
43627;DHT22;29217;52.586;13.442;2022-09-09T14:44:55;23.00;99.90
43627;DHT22;29217;52.586;13.442;2022-09-09T14:47:20;22.80;99.90
43627;DHT22;29217;52.586;13.442;2022-09-09T14:49:46;22.70;99.90
43627;DHT22;29217;52.586;13.442;2022-09-09T14:52:14;22.70;99.90
43627;DHT22;29217;52.586;13.442;2022-09-09T14:54:40;22.60;99.90
43627;DHT22;29217;52.586;13.442;2022-09-09T14:57:05;22.50;99.90
43627;DHT22;29217;52.586;13.442;2022-09-09T14:59:31;22.50;99.90
43627;DHT22;29217;52.586;13.442;2022-09-09T15:01:56;22.50;99.90
43627;DHT22;29217;52.586;13.442;2022-09-09T15:04:22;22.50;99.90
43627;DHT22;29217;52.586;13.442;2022-09-09T15:06:47;22.30;99.90
43627;DHT22;29217;52.586;13.442;2022-09-09T15:09:15;22.20;99.90
43627;DHT22;29217;52.586;13.442;2022-09-09T15:11:41;22.10;99.90
43627;DHT22;29217;52.586;13.442;2022-09-09T15:14:07;22.10;99.90
43627;DHT22;29217;52.586;13.442;2022-09-09T15:16:33;22.10;99.90
43627;DHT22;29217;52.586;13.442;2022-09-09T15:19:00;22.10;99.90
43627;DHT22;29217;52.586;13.442;2022-09-09T15:21:28;22.10;99.90
43627;DHT22;29217;52.586;13.442;2022-09-09T15:23:55;22.10;99.90
43627;DHT22;29217;52.586;13.442;2022-09-09T15:26:21;22.10;99.90
43627;DHT22;29217;52.586;13.442;2022-09-09T15:28:47;22.20;99.90
43627;DHT22;29217;52.586;13.442;2022-09-09T15:31:14;22.30;99.90
43627;DHT22;29217;52.586;13.442;2022-09-09T15:33:40;22.50;99.90
43627;DHT22;29217;52.586;13.442;2022-09-09T15:36:16;22.70;99.90
43627;DHT22;29217;52.586;13.442;2022-09-09T15:38:42;22.80;99.90
43627;DHT22;29217;52.586;13.442;2022-09-09T15:41:09;22.80;99.90
43627;DHT22;29217;52.586;13.442;2022-09-09T15:43:35;22.80;99.90
43627;DHT22;29217;52.586;13.442;2022-09-09T15:46:21;22.70;99.90
43627;DHT22;29217;52.586;13.442;2022-09-09T15:48:50;22.60;99.90
43627;DHT22;29217;52.586;13.442;2022-09-09T15:51:16;22.50;99.90
43627;DHT22;29217;52.586;13.442;2022-09-09T15:53:42;22.40;99.90
43627;DHT22;29217;52.586;13.442;2022-09-09T15:56:08;22.30;99.90
43627;DHT22;29217;52.586;13.442;2022-09-09T15:58:34;22.20;99.90
43627;DHT22;29217;52.586;13.442;2022-09-09T16:01:07;22.10;99.90
43627;DHT22;29217;52.586;13.442;2022-09-09T16:03:38;22.00;99.90
43627;DHT22;29217;52.586;13.442;2022-09-09T16:06:05;21.90;99.90
43627;DHT22;29217;52.586;13.442;2022-09-09T16:08:39;21.80;99.90
43627;DHT22;29217;52.586;13.442;2022-09-09T16:11:07;21.60;99.90
43627;DHT22;29217;52.586;13.442;2022-09-09T16:13:38;21.50;99.90
43627;DHT22;29217;52.586;13.442;2022-09-09T16:16:05;21.40;99.90
43627;DHT22;29217;52.586;13.442;2022-09-09T16:18:41;21.30;99.90
43627;DHT22;29217;52.586;13.442;2022-09-09T16:21:17;21.30;99.90
43627;DHT22;29217;52.586;13.442;2022-09-09T16:23:43;21.20;99.90
43627;DHT22;29217;52.586;13.442;2022-09-09T16:26:14;21.20;99.90
43627;DHT22;29217;52.586;13.442;2022-09-09T16:28:40;21.10;99.90
43627;DHT22;29217;52.586;13.442;2022-09-09T16:31:07;21.00;99.90
43627;DHT22;29217;52.586;13.442;2022-09-09T16:33:33;21.00;99.90
43627;DHT22;29217;52.586;13.442;2022-09-09T16:36:08;20.90;99.90
43627;DHT22;29217;52.586;13.442;2022-09-09T16:38:34;20.90;99.90
43627;DHT22;29217;52.586;13.442;2022-09-09T16:41:03;20.90;99.90
43627;DHT22;29217;52.586;13.442;2022-09-09T16:43:30;20.80;99.90
43627;DHT22;29217;52.586;13.442;2022-09-09T16:45:55;20.80;99.90
43627;DHT22;29217;52.586;13.442;2022-09-09T16:48:21;20.70;99.90
43627;DHT22;29217;52.586;13.442;2022-09-09T16:50:46;20.70;99.90
43627;DHT22;29217;52.586;13.442;2022-09-09T16:53:12;20.60;99.90
43627;DHT22;29217;52.586;13.442;2022-09-09T16:55:40;20.60;99.90
43627;DHT22;29217;52.586;13.442;2022-09-09T16:58:07;20.60;99.90
43627;DHT22;29217;52.586;13.442;2022-09-09T17:00:34;20.50;99.90
43627;DHT22;29217;52.586;13.442;2022-09-09T17:02:59;20.50;99.90
43627;DHT22;29217;52.586;13.442;2022-09-09T17:05:25;20.50;99.90
43627;DHT22;29217;52.586;13.442;2022-09-09T17:07:50;20.40;99.90
43627;DHT22;29217;52.586;13.442;2022-09-09T17:10:16;20.40;99.90